Aérodrome :
LOGIN :

S'inscrire | Disclaimer

   EN    FR    IT 

 










Légende :    VFR   VFR Marginal   IFR   IFR Intensif   IFR Très Intensif
Visi : 
Plafond : 
>= 8 km
>= 3000ft
5 à 8 km
1000 à 3000 ft
1500m à 5 km
500 à 1000 ft
800 à 1500m
200 à 500 ft
< 800m
< 200 ft
Symboles :   Orages  Brouillard  Fortes neiges  Fortes précipitations  Vent > 20 kt
SIGMETs :   Divers  Orages  Givrage  Turbulence  Onde Orograph.  Cendres Volcan.







- Altitude de l'aérodrome : 1325 ft
- Code IATA : EBU
- Voir les cartes d'approche


LFMH - St-Etienne Boutheon

DERNIER METAR :
  • 261300Z AUTO 34014KT 310V010 9999 FEW052 11/M00 Q1026 TEMPO 34017G30KT

METARs EXPIRÉS :
  • 261230Z AUTO 35014KT 9999 FEW042 10/M00 Q1026 TEMPO 34017G30KT
  • 261200Z AUTO 33014KT 310V010 9999 FEW050 10/M00 Q1026 TEMPO 34017G30KT
  • 261130Z AUTO 33014KT 300V360 9999 FEW037 BKN046 09/01 Q1027 TEMPO 34017G30KT
  • 261100Z AUTO 33012KT 300V020 9999 BKN032 BKN039 08/01 Q1027 TEMPO 34017G30KT
  • 261030Z AUTO 33015KT 290V010 9999 BKN031 BKN043 07/M00 Q1027 TEMPO 34017G30KT

TAF TAF LFMH
Valide du 26 à 09h jusqu'au 27 à 09h UTC


260800Z 2609/2709 34010G20KT 9999 SCT030
TEMPO 2611/2618 34017G30KT
BECMG 2618/2621 36005KT
ATIS : +33 4 77 36 17 51
Pas de NOTAMs connus pour ce terrain.
5 SIGMETs publiés pour la FIR Marseille (LFMM) :
 
Turbulence forte
LFMM SIGMET 9 VALID 261200/261600 LFPW
LFMM MARSEILLE FIR/UIR SEV TURB FCST WI N4200 E00400 - N4215 E00230 - N4530 E00300 - N4500 E00545 - N4200 E00400 SFC/FL070 STNR WKN=
Onde orographique forte
LFMM SIGMET 8 VALID 261145/261500 LFPW
LFMM MARSEILLE FIR/UIR SEV MTW FCST WI N4600 E00700 - N4400 E00700 - N4400 E00715 - N4400 E00530 - N4500 E00515 - N4600 E00700 FL320/400 STNR NC=
Onde orographique forte
LFMM SIGMET 7 VALID 261140/261500 LFPW
LFMM MARSEILLE FIR/UIR SEV MTW OBS WI N4200 E00430 - N4215 E00230 - N4300 E00230 - N4230 E00500 - N4200 E00430 FL300/380 STNR NC=
Turbulence forte
LFMM SIGMET 11 VALID 261200/261600 LFPW
LFMM MARSEILLE FIR/UIR SEV TURB FCST WI N4115 E00930 - N4115 E00900 - N4230 E00830 - N4300 E00930 - N4115 E00930 SFC/FL090 STNR NC=
Turbulence forte
LFMM SIGMET 10 VALID 261200/261600 LFPW
LFMM MARSEILLE FIR/UIR SEV TURB FCST WI N4545 E00700 - N4400 E00700 - N4345 E00815 - N4330 E00600 - N4500 E00600 - N4545 E00700 SFC/FL140 STNR NC=



MET'MAP, la Météo Aéronautique d'un coup d'oeil ! - Copyright ORBIFLY Décembre 2007 - Disclaimer

ORBIFLY MET'MAP TEAM :

Programmation & Développement : Alexandra Zaïnal
Conception & Développement : Baudouin d'Aumeries
Co-Programmation & Développement : Marc-Olivier Méhu
Soutien technique & logistique : Manuel Goepfert

Contact : metmap@orbifly.com




SOURCES & CREDITS :

   NOAA